createdAt,value
2019-04-01T10:42:28.130Z,46.20
2019-04-01T10:45:03.671Z,46.50
2019-04-01T10:47:39.529Z,45.40
2019-04-01T10:50:15.057Z,45.20
2019-04-01T10:52:49.941Z,45.80
2019-04-01T10:55:28.004Z,46.60
2019-04-01T10:58:02.921Z,45.80
2019-04-01T11:00:39.671Z,46.30
2019-04-01T11:03:14.638Z,45.50
2019-04-01T11:05:48.720Z,46.00
2019-04-01T11:08:25.123Z,46.90
2019-04-01T11:11:04.789Z,47.40
2019-04-01T11:13:41.010Z,47.40
2019-04-01T11:16:16.924Z,47.30
2019-04-01T11:18:51.568Z,46.80
2019-04-01T11:21:26.474Z,47.80
2019-04-01T11:24:01.951Z,47.70
2019-04-01T11:26:38.218Z,48.30
2019-04-01T11:29:13.335Z,50.90
2019-04-01T11:31:50.420Z,51.00
2019-04-01T11:34:26.703Z,50.50
2019-04-01T11:37:04.766Z,50.40
2019-04-01T11:39:40.310Z,49.00
2019-04-01T11:42:15.967Z,46.60
2019-04-01T11:44:52.536Z,47.80
2019-04-01T11:47:27.069Z,51.20
2019-04-01T11:50:03.510Z,52.80
2019-04-01T11:52:39.650Z,52.20
2019-04-01T11:55:15.627Z,52.80
2019-04-01T11:57:50.630Z,55.20
2019-04-01T12:00:26.988Z,54.80
2019-04-01T12:03:03.455Z,55.50
2019-04-01T12:05:38.620Z,55.90
2019-04-01T12:08:12.759Z,55.60
2019-04-01T12:10:48.444Z,54.00
2019-04-01T12:13:23.455Z,54.40
2019-04-01T12:15:58.958Z,53.70
2019-04-01T12:18:33.325Z,52.30
2019-04-01T12:21:10.890Z,52.10
2019-04-01T12:23:43.814Z,51.30
2019-04-01T12:26:17.927Z,50.90
2019-04-01T12:28:53.070Z,51.00
2019-04-01T12:31:29.801Z,50.20
2019-04-01T12:34:04.202Z,50.50
2019-04-01T12:36:38.748Z,50.60
2019-04-01T12:39:12.714Z,51.40
2019-04-01T12:41:58.411Z,53.10
2019-04-01T12:44:30.840Z,54.40
2019-04-01T12:47:09.015Z,55.70
2019-04-01T12:49:44.799Z,57.00
2019-04-01T12:52:23.764Z,57.70
2019-04-01T12:55:00.888Z,58.10
2019-04-01T12:57:36.279Z,58.50
2019-04-01T13:00:13.186Z,58.60
2019-04-01T13:02:49.416Z,57.90
2019-04-01T13:05:25.336Z,58.70
2019-04-01T13:07:59.903Z,59.00
2019-04-01T13:10:36.599Z,58.40
2019-04-01T13:13:12.984Z,58.40
2019-04-01T13:15:48.046Z,58.90
2019-04-01T13:18:22.627Z,58.40
2019-04-01T13:20:56.611Z,58.40
2019-04-01T13:23:31.727Z,58.30
2019-04-01T13:26:07.301Z,57.30
2019-04-01T13:28:42.628Z,57.90
2019-04-01T13:31:19.137Z,59.40
2019-04-01T13:33:53.925Z,59.80
2019-04-01T13:36:33.342Z,60.70
2019-04-01T13:39:08.821Z,62.10
2019-04-01T13:41:45.252Z,63.30
2019-04-01T13:44:35.712Z,63.90
2019-04-01T13:46:57.949Z,64.80
2019-04-01T13:49:34.505Z,64.60
2019-04-01T13:52:14.027Z,65.20
2019-04-01T13:54:49.159Z,66.70
2019-04-01T13:57:22.460Z,66.50
2019-04-01T13:59:57.633Z,67.00
2019-04-01T14:02:31.515Z,66.20
2019-04-01T14:05:07.659Z,65.40
2019-04-01T14:07:41.509Z,65.10
2019-04-01T14:10:15.927Z,65.80
2019-04-01T14:12:50.265Z,65.90
2019-04-01T14:15:25.114Z,64.80
2019-04-01T14:17:59.515Z,64.70
2019-04-01T14:20:34.511Z,64.50
2019-04-01T14:23:09.275Z,64.80
2019-04-01T14:25:43.188Z,65.40
2019-04-01T14:28:18.659Z,66.20
2019-04-01T14:30:53.159Z,67.00
2019-04-01T14:33:27.257Z,66.60
2019-04-01T14:36:04.661Z,66.20
2019-04-01T14:38:40.406Z,66.40
2019-04-01T14:41:14.992Z,66.10
2019-04-01T14:43:49.431Z,66.60
2019-04-01T14:46:24.230Z,66.40
2019-04-01T14:49:00.307Z,67.50
2019-04-01T14:51:32.604Z,67.70
2019-04-01T14:54:07.585Z,67.70
2019-04-01T14:56:41.708Z,67.80
2019-04-01T14:59:18.400Z,66.20
2019-04-01T15:01:53.412Z,65.30
2019-04-01T15:04:31.812Z,65.00
2019-04-01T15:07:06.997Z,65.70
2019-04-01T15:09:41.308Z,63.20
2019-04-01T15:12:15.588Z,62.50
2019-04-01T15:14:49.523Z,62.10
2019-04-01T15:17:25.402Z,61.00
2019-04-01T15:19:59.868Z,60.70
2019-04-01T15:22:35.686Z,59.70
2019-04-01T15:25:11.680Z,59.80
2019-04-01T15:27:45.948Z,56.00
2019-04-01T15:30:21.518Z,53.20
2019-04-01T15:32:55.934Z,51.60
2019-04-01T15:35:30.578Z,51.40
2019-04-01T15:38:05.302Z,50.40
2019-04-01T15:40:42.383Z,49.30
2019-04-01T15:43:16.349Z,47.60
2019-04-01T15:45:49.762Z,47.20
2019-04-01T15:48:23.864Z,47.70
2019-04-01T15:50:58.630Z,48.50
2019-04-01T15:53:34.731Z,48.70
2019-04-01T15:56:15.993Z,48.60
2019-04-01T15:58:51.486Z,48.20
2019-04-01T16:01:30.716Z,49.00
2019-04-01T16:04:08.505Z,49.60
2019-04-01T16:06:43.431Z,50.30
2019-04-01T16:09:18.384Z,50.30
2019-04-01T16:11:55.409Z,49.10
2019-04-01T16:14:31.299Z,48.00
2019-04-01T16:17:08.147Z,48.60
2019-04-01T16:19:42.585Z,49.00
2019-04-01T16:22:17.011Z,50.20
2019-04-01T16:24:51.355Z,52.20
2019-04-01T16:27:37.040Z,52.40
2019-04-01T16:30:13.055Z,53.60
2019-04-01T16:32:49.711Z,55.40
2019-04-01T16:35:23.896Z,57.20
2019-04-01T16:37:59.487Z,58.30
2019-04-01T16:40:34.655Z,60.00
2019-04-01T16:43:08.704Z,61.10
2019-04-01T16:45:44.323Z,61.50
2019-04-01T16:48:18.018Z,62.10
2019-04-01T16:50:53.594Z,62.80
2019-04-01T16:53:27.682Z,63.60
2019-04-01T16:56:03.038Z,64.40
2019-04-01T16:58:38.012Z,65.40
2019-04-01T17:01:12.707Z,65.90
2019-04-01T17:03:46.734Z,66.20
2019-04-01T17:06:21.600Z,66.70
2019-04-01T17:08:55.358Z,66.20
2019-04-01T17:11:31.016Z,66.20
2019-04-01T17:14:08.780Z,66.20
2019-04-01T17:16:42.695Z,66.50
2019-04-01T17:19:17.229Z,66.70
2019-04-01T17:21:50.275Z,66.80
2019-04-01T17:24:24.352Z,66.70
2019-04-01T17:27:05.168Z,67.40
2019-04-01T17:29:38.912Z,67.50
2019-04-01T17:32:12.841Z,68.00
2019-04-01T17:34:46.724Z,67.50
2019-04-01T17:37:20.328Z,67.80
2019-04-01T17:39:57.068Z,67.70
2019-04-01T17:42:31.203Z,68.10
2019-04-01T17:45:11.358Z,68.70
2019-04-01T17:47:45.681Z,68.90
2019-04-01T17:50:20.614Z,68.90
2019-04-01T17:52:59.297Z,69.20
2019-04-01T17:55:34.614Z,69.70
2019-04-01T17:58:15.499Z,70.00
2019-04-01T18:01:00.169Z,70.30
2019-04-01T18:03:34.781Z,70.30
2019-04-01T18:06:11.272Z,70.30
2019-04-01T18:08:45.312Z,70.30
2019-04-01T18:11:19.216Z,70.10
2019-04-01T18:13:52.994Z,70.50
2019-04-01T18:16:31.532Z,70.60
2019-04-01T18:19:07.830Z,70.60
2019-04-01T18:21:42.964Z,70.80
2019-04-01T18:24:19.034Z,69.70
2019-04-01T18:26:53.758Z,69.60
2019-04-01T18:29:28.029Z,70.60
2019-04-01T18:32:02.742Z,70.00
2019-04-01T18:34:37.732Z,70.40
2019-04-01T18:37:11.453Z,70.60
2019-04-01T18:39:48.447Z,70.90
2019-04-01T18:42:21.632Z,70.90
2019-04-01T18:44:56.759Z,71.30
2019-04-01T18:47:30.152Z,71.90
2019-04-01T18:50:05.161Z,72.20
2019-04-01T18:52:39.662Z,72.40
2019-04-01T18:55:14.090Z,72.40
2019-04-01T18:57:49.074Z,72.40
2019-04-01T19:00:27.723Z,72.30
2019-04-01T19:03:03.655Z,72.60
2019-04-01T19:05:41.618Z,72.50
2019-04-01T19:08:16.385Z,72.60
2019-04-01T19:11:01.689Z,73.10
2019-04-01T19:13:27.966Z,73.40
2019-04-01T19:16:10.428Z,73.90
2019-04-01T19:18:44.752Z,75.60
2019-04-01T19:21:19.267Z,76.10
2019-04-01T19:23:53.871Z,76.60
2019-04-01T19:26:26.210Z,77.10
2019-04-01T19:28:59.970Z,77.10
2019-04-01T19:31:36.420Z,77.50
2019-04-01T19:34:11.466Z,77.50
2019-04-01T19:36:46.585Z,77.70
2019-04-01T19:39:21.006Z,77.90
2019-04-01T19:41:55.661Z,77.80
2019-04-01T19:44:30.294Z,78.20
2019-04-01T19:47:04.902Z,78.00
2019-04-01T19:49:40.008Z,78.30
2019-04-01T19:52:15.014Z,78.40
2019-04-01T19:54:48.704Z,77.50
2019-04-01T19:57:22.853Z,77.20
2019-04-01T19:59:57.527Z,76.20
2019-04-01T20:02:34.235Z,75.50
2019-04-01T20:05:11.552Z,75.20
2019-04-01T20:07:57.665Z,74.90
2019-04-01T20:10:28.564Z,74.90
2019-04-01T20:13:02.208Z,75.00
2019-04-01T20:15:36.096Z,75.00
2019-04-01T20:18:10.631Z,75.50
2019-04-01T20:20:44.728Z,75.60
2019-04-01T20:23:24.720Z,76.50
2019-04-01T20:25:59.382Z,77.20
2019-04-01T20:28:37.558Z,77.40
2019-04-01T20:31:11.431Z,77.70
2019-04-01T20:33:45.877Z,78.00
2019-04-01T20:36:28.556Z,78.70
2019-04-01T20:38:56.430Z,78.50
2019-04-01T20:41:30.521Z,79.30
2019-04-01T20:44:06.221Z,78.50
2019-04-01T20:46:41.589Z,78.60
2019-04-01T20:49:18.934Z,78.60
2019-04-01T20:51:54.157Z,78.40
2019-04-01T20:54:31.643Z,78.80
2019-04-01T20:57:06.286Z,78.90
2019-04-01T20:59:41.085Z,79.80
2019-04-01T21:02:15.712Z,79.60
2019-04-01T21:04:51.167Z,80.20
2019-04-01T21:07:25.322Z,80.60
2019-04-01T21:09:59.722Z,80.80
2019-04-01T21:12:33.592Z,81.00
2019-04-01T21:15:12.699Z,81.10
2019-04-01T21:17:48.933Z,81.80
2019-04-01T21:20:23.988Z,82.20
2019-04-01T21:22:58.142Z,82.20
2019-04-01T21:25:32.571Z,82.40
2019-04-01T21:28:06.493Z,82.70
2019-04-01T21:30:40.516Z,83.10
2019-04-01T21:33:15.070Z,83.50
2019-04-01T21:35:50.335Z,83.70
2019-04-01T21:38:24.816Z,83.30
2019-04-01T21:40:59.542Z,83.50
2019-04-01T21:43:33.533Z,83.20
2019-04-01T21:46:08.107Z,83.00
2019-04-01T21:48:42.253Z,83.00
2019-04-01T21:51:16.480Z,83.10
2019-04-01T21:53:50.249Z,83.60
2019-04-01T21:56:31.703Z,83.10
2019-04-01T21:59:09.944Z,82.70
2019-04-01T22:01:43.972Z,82.10
2019-04-01T22:04:20.237Z,82.10
2019-04-01T22:06:57.560Z,82.10
2019-04-01T22:09:33.905Z,82.30
2019-04-01T22:12:08.069Z,82.00
2019-04-01T22:14:41.831Z,82.10
2019-04-01T22:17:16.151Z,82.10
2019-04-01T22:19:52.139Z,81.70
2019-04-01T22:22:24.443Z,81.40
2019-04-01T22:24:57.002Z,81.50
2019-04-01T22:27:30.992Z,81.90
2019-04-01T22:30:05.424Z,82.20
2019-04-01T22:32:39.737Z,82.20
2019-04-01T22:35:14.081Z,82.40
2019-04-01T22:37:47.804Z,82.50
2019-04-01T22:40:21.755Z,83.00
2019-04-01T22:42:56.191Z,83.20
2019-04-01T22:45:30.252Z,83.70
2019-04-01T22:48:03.875Z,84.00
2019-04-01T22:50:38.272Z,84.40
2019-04-01T22:53:12.471Z,84.30
2019-04-01T22:55:47.942Z,83.80
2019-04-01T22:58:22.851Z,83.90
2019-04-01T23:00:56.807Z,83.60
2019-04-01T23:03:30.550Z,83.80
2019-04-01T23:06:06.064Z,83.70
2019-04-01T23:08:43.876Z,83.70
2019-04-01T23:11:17.759Z,83.70
2019-04-01T23:13:51.637Z,83.80
2019-04-01T23:16:25.298Z,84.10
2019-04-01T23:18:59.268Z,84.40
2019-04-01T23:21:35.058Z,85.40
2019-04-01T23:24:08.366Z,85.00
2019-04-01T23:26:42.832Z,85.10
2019-04-01T23:29:17.028Z,85.10
2019-04-01T23:31:50.523Z,85.00
2019-04-01T23:34:24.663Z,85.30
2019-04-01T23:36:59.170Z,85.50
2019-04-01T23:39:34.284Z,85.80
2019-04-01T23:42:08.040Z,85.90
2019-04-01T23:44:41.653Z,86.20
2019-04-01T23:47:15.258Z,86.80
2019-04-01T23:49:50.188Z,86.90
2019-04-01T23:52:23.636Z,86.90
2019-04-01T23:54:57.936Z,87.50
2019-04-01T23:57:31.542Z,87.40
